首页
METAR-TAF:

METAR-TAF

机场 :

維也納國際機場

維也納, 奥地利

纬度: 48-07N, 经度: 016-34E, 海拔: 183米

当前天气观测

该预报发布于18分钟前的09:20 UTC
风速11节,风向西转西北
温度 19°C
湿度 60%
气压 1019 hPa
能见度10公里或以上
少量云层高于4000英尺

METAR: LOWW 010920Z 30011KT 9999 FEW040 19/11 Q1019 NOSIG

时间: 11:38 (09:38 UTC)

预报

该预报发布于1小时和23分钟前的08:15 UTC
预报有效从01日的 09点(UTC)到 02日的 15点(UTC)
风速14节,风向西北
能见度10公里或以上
1500米以下无云,无积雨云
短暂存在
从 01日的 20点(UTC)到 02日的 04点(UTC)
风速4节,风向多变
短暂存在
从 02日的 11点(UTC)到 02日的 15点(UTC)
风速15节,风向北转西北,有时为25节阵风

TAF: LOWW 010815Z 0109/0215 32014KT CAVOK TX21/0115Z TN11/0203Z TEMPO 0120/0204 VRB04KT TEMPO 0211/0215 33015G25KT

超过4000个机场的气象观测和天气预报(METAR&TAF报告)。

可查询的气象台以黄色和红色小点在地图上表示。

将鼠标移到小点上方,可查看气象台名称。

然后点击查看天气观测和预报。

如需切换地图:点击带黑十字的绿色按钮放大地图;点击带横线的绿色按钮缩小地图;或者点击绿色箭头查看邻近地区的地图。


METAR-TAF: